sensor_id;sensor_type;location;lat;lon;timestamp;P1;durP1;ratioP1;P2;durP2;ratioP2
83232;SDS011;73119;42.642;23.332;2024-03-08T00:01:38;10.13;;;5.25;;
83232;SDS011;73119;42.642;23.332;2024-03-08T00:04:04;8.93;;;4.35;;
83232;SDS011;73119;42.642;23.332;2024-03-08T00:06:32;10.48;;;5.15;;
83232;SDS011;73119;42.642;23.332;2024-03-08T00:08:58;9.57;;;5.28;;
83232;SDS011;73119;42.642;23.332;2024-03-08T00:11:27;6.43;;;4.38;;
83232;SDS011;73119;42.642;23.332;2024-03-08T00:13:54;6.53;;;4.35;;
83232;SDS011;73119;42.642;23.332;2024-03-08T00:16:20;6.68;;;4.20;;
83232;SDS011;73119;42.642;23.332;2024-03-08T00:18:50;8.27;;;4.43;;
83232;SDS011;73119;42.642;23.332;2024-03-08T00:28:36;3.92;;;3.00;;
83232;SDS011;73119;42.642;23.332;2024-03-08T00:31:02;7.20;;;5.15;;
83232;SDS011;73119;42.642;23.332;2024-03-08T00:33:31;8.68;;;3.88;;
83232;SDS011;73119;42.642;23.332;2024-03-08T00:36:00;6.88;;;4.22;;
83232;SDS011;73119;42.642;23.332;2024-03-08T00:38:27;8.20;;;5.05;;
83232;SDS011;73119;42.642;23.332;2024-03-08T00:40:53;7.15;;;4.05;;
83232;SDS011;73119;42.642;23.332;2024-03-08T00:43:22;7.13;;;4.07;;
83232;SDS011;73119;42.642;23.332;2024-03-08T00:45:48;6.32;;;3.97;;
83232;SDS011;73119;42.642;23.332;2024-03-08T00:48:16;8.98;;;4.80;;
83232;SDS011;73119;42.642;23.332;2024-03-08T00:50:43;5.05;;;2.30;;
83232;SDS011;73119;42.642;23.332;2024-03-08T00:53:12;5.15;;;3.58;;
83232;SDS011;73119;42.642;23.332;2024-03-08T00:55:38;6.63;;;4.13;;
83232;SDS011;73119;42.642;23.332;2024-03-08T00:58:06;6.57;;;3.40;;
83232;SDS011;73119;42.642;23.332;2024-03-08T01:00:35;7.53;;;3.92;;
83232;SDS011;73119;42.642;23.332;2024-03-08T01:03:06;6.28;;;3.10;;
83232;SDS011;73119;42.642;23.332;2024-03-08T01:05:33;4.63;;;2.40;;
83232;SDS011;73119;42.642;23.332;2024-03-08T01:08:00;3.42;;;2.35;;
83232;SDS011;73119;42.642;23.332;2024-03-08T01:10:32;5.10;;;2.47;;
83232;SDS011;73119;42.642;23.332;2024-03-08T01:13:00;2.47;;;2.22;;
83232;SDS011;73119;42.642;23.332;2024-03-08T01:15:27;4.68;;;2.33;;
83232;SDS011;73119;42.642;23.332;2024-03-08T01:17:54;4.85;;;2.17;;
83232;SDS011;73119;42.642;23.332;2024-03-08T01:20:21;2.65;;;1.60;;
83232;SDS011;73119;42.642;23.332;2024-03-08T01:22:50;3.28;;;1.95;;
83232;SDS011;73119;42.642;23.332;2024-03-08T01:25:18;5.10;;;1.95;;
83232;SDS011;73119;42.642;23.332;2024-03-08T01:27:45;2.47;;;1.83;;
83232;SDS011;73119;42.642;23.332;2024-03-08T01:30:13;2.50;;;1.83;;
83232;SDS011;73119;42.642;23.332;2024-03-08T01:32:42;2.42;;;1.48;;
83232;SDS011;73119;42.642;23.332;2024-03-08T01:35:11;2.60;;;1.70;;
83232;SDS011;73119;42.642;23.332;2024-03-08T01:37:41;2.17;;;1.40;;
83232;SDS011;73119;42.642;23.332;2024-03-08T01:40:07;2.60;;;1.80;;
83232;SDS011;73119;42.642;23.332;2024-03-08T01:42:34;1.95;;;1.20;;
83232;SDS011;73119;42.642;23.332;2024-03-08T01:45:04;3.17;;;1.95;;
83232;SDS011;73119;42.642;23.332;2024-03-08T01:47:30;2.55;;;1.63;;
83232;SDS011;73119;42.642;23.332;2024-03-08T01:49:59;2.30;;;1.38;;
83232;SDS011;73119;42.642;23.332;2024-03-08T01:52:29;3.25;;;1.55;;
83232;SDS011;73119;42.642;23.332;2024-03-08T01:54:57;4.35;;;2.38;;
83232;SDS011;73119;42.642;23.332;2024-03-08T01:57:26;4.63;;;2.05;;
83232;SDS011;73119;42.642;23.332;2024-03-08T01:59:53;3.80;;;2.30;;
83232;SDS011;73119;42.642;23.332;2024-03-08T02:04:50;2.78;;;1.73;;
83232;SDS011;73119;42.642;23.332;2024-03-08T02:07:17;2.90;;;1.23;;
83232;SDS011;73119;42.642;23.332;2024-03-08T02:09:43;4.88;;;2.40;;
83232;SDS011;73119;42.642;23.332;2024-03-08T02:12:11;1.50;;;1.27;;
83232;SDS011;73119;42.642;23.332;2024-03-08T02:14:38;2.70;;;1.73;;
83232;SDS011;73119;42.642;23.332;2024-03-08T02:17:05;3.63;;;1.80;;
83232;SDS011;73119;42.642;23.332;2024-03-08T02:19:32;2.28;;;1.65;;
83232;SDS011;73119;42.642;23.332;2024-03-08T02:24:30;2.88;;;1.48;;
83232;SDS011;73119;42.642;23.332;2024-03-08T02:26:58;2.45;;;1.77;;
83232;SDS011;73119;42.642;23.332;2024-03-08T02:29:24;2.30;;;2.08;;
83232;SDS011;73119;42.642;23.332;2024-03-08T02:31:52;1.92;;;1.73;;
83232;SDS011;73119;42.642;23.332;2024-03-08T02:34:18;3.78;;;2.05;;
83232;SDS011;73119;42.642;23.332;2024-03-08T02:36:45;2.83;;;1.67;;
83232;SDS011;73119;42.642;23.332;2024-03-08T02:39:11;5.60;;;2.10;;
83232;SDS011;73119;42.642;23.332;2024-03-08T02:41:37;2.60;;;1.85;;
83232;SDS011;73119;42.642;23.332;2024-03-08T02:44:04;2.03;;;1.67;;
83232;SDS011;73119;42.642;23.332;2024-03-08T02:46:30;3.22;;;1.65;;
83232;SDS011;73119;42.642;23.332;2024-03-08T02:48:56;3.25;;;2.05;;
83232;SDS011;73119;42.642;23.332;2024-03-08T02:51:22;2.85;;;1.75;;
83232;SDS011;73119;42.642;23.332;2024-03-08T02:53:48;3.83;;;1.60;;
83232;SDS011;73119;42.642;23.332;2024-03-08T02:56:16;3.58;;;1.98;;
83232;SDS011;73119;42.642;23.332;2024-03-08T02:58:43;2.70;;;1.83;;
83232;SDS011;73119;42.642;23.332;2024-03-08T03:01:14;5.47;;;1.83;;
83232;SDS011;73119;42.642;23.332;2024-03-08T03:03:40;2.58;;;1.83;;
83232;SDS011;73119;42.642;23.332;2024-03-08T03:06:07;2.63;;;1.65;;
83232;SDS011;73119;42.642;23.332;2024-03-08T03:08:33;2.45;;;1.67;;
83232;SDS011;73119;42.642;23.332;2024-03-08T03:10:59;1.92;;;1.30;;
83232;SDS011;73119;42.642;23.332;2024-03-08T03:13:26;1.85;;;1.05;;
83232;SDS011;73119;42.642;23.332;2024-03-08T03:18:22;1.08;;;0.95;;
83232;SDS011;73119;42.642;23.332;2024-03-08T03:20:49;1.73;;;1.20;;
83232;SDS011;73119;42.642;23.332;2024-03-08T03:23:15;1.45;;;1.13;;
83232;SDS011;73119;42.642;23.332;2024-03-08T03:25:45;2.10;;;1.20;;
83232;SDS011;73119;42.642;23.332;2024-03-08T03:28:11;2.25;;;1.23;;
83232;SDS011;73119;42.642;23.332;2024-03-08T03:30:42;2.03;;;1.13;;
83232;SDS011;73119;42.642;23.332;2024-03-08T03:33:08;0.65;;;0.50;;
83232;SDS011;73119;42.642;23.332;2024-03-08T03:35:38;2.67;;;1.33;;
83232;SDS011;73119;42.642;23.332;2024-03-08T03:38:05;1.33;;;1.20;;
83232;SDS011;73119;42.642;23.332;2024-03-08T03:40:34;1.10;;;1.00;;
83232;SDS011;73119;42.642;23.332;2024-03-08T03:43:02;1.73;;;1.00;;
83232;SDS011;73119;42.642;23.332;2024-03-08T03:45:28;1.63;;;1.27;;
83232;SDS011;73119;42.642;23.332;2024-03-08T03:47:56;1.05;;;0.82;;
83232;SDS011;73119;42.642;23.332;2024-03-08T03:50:26;1.40;;;1.08;;
83232;SDS011;73119;42.642;23.332;2024-03-08T03:52:53;1.95;;;1.13;;
83232;SDS011;73119;42.642;23.332;2024-03-08T03:55:22;1.00;;;0.80;;
83232;SDS011;73119;42.642;23.332;2024-03-08T03:57:51;1.83;;;1.33;;
83232;SDS011;73119;42.642;23.332;2024-03-08T04:00:21;1.30;;;0.90;;
83232;SDS011;73119;42.642;23.332;2024-03-08T04:02:47;1.25;;;1.15;;
83232;SDS011;73119;42.642;23.332;2024-03-08T04:05:15;1.08;;;0.98;;
83232;SDS011;73119;42.642;23.332;2024-03-08T04:07:41;1.52;;;1.08;;
83232;SDS011;73119;42.642;23.332;2024-03-08T04:10:09;2.35;;;1.48;;
83232;SDS011;73119;42.642;23.332;2024-03-08T04:12:36;2.10;;;1.38;;
83232;SDS011;73119;42.642;23.332;2024-03-08T04:15:02;2.38;;;1.70;;
83232;SDS011;73119;42.642;23.332;2024-03-08T04:17:30;2.92;;;1.20;;
83232;SDS011;73119;42.642;23.332;2024-03-08T04:19:56;1.88;;;1.40;;
83232;SDS011;73119;42.642;23.332;2024-03-08T04:22:23;2.75;;;1.50;;
83232;SDS011;73119;42.642;23.332;2024-03-08T04:24:50;1.52;;;1.40;;
83232;SDS011;73119;42.642;23.332;2024-03-08T04:27:17;1.38;;;1.08;;
83232;SDS011;73119;42.642;23.332;2024-03-08T04:29:44;1.60;;;0.98;;
83232;SDS011;73119;42.642;23.332;2024-03-08T04:32:10;1.90;;;1.65;;
83232;SDS011;73119;42.642;23.332;2024-03-08T04:37:05;1.20;;;1.05;;
83232;SDS011;73119;42.642;23.332;2024-03-08T04:39:33;1.58;;;1.02;;
83232;SDS011;73119;42.642;23.332;2024-03-08T04:44:30;1.30;;;1.15;;
83232;SDS011;73119;42.642;23.332;2024-03-08T04:46:56;1.45;;;1.10;;
83232;SDS011;73119;42.642;23.332;2024-03-08T04:49:24;1.38;;;0.98;;
83232;SDS011;73119;42.642;23.332;2024-03-08T04:51:50;1.42;;;1.02;;
83232;SDS011;73119;42.642;23.332;2024-03-08T04:54:16;2.72;;;1.20;;
83232;SDS011;73119;42.642;23.332;2024-03-08T04:59:11;0.98;;;0.85;;
83232;SDS011;73119;42.642;23.332;2024-03-08T05:01:40;2.33;;;1.85;;
83232;SDS011;73119;42.642;23.332;2024-03-08T05:04:06;3.88;;;1.85;;
83232;SDS011;73119;42.642;23.332;2024-03-08T05:06:33;1.90;;;1.48;;
83232;SDS011;73119;42.642;23.332;2024-03-08T05:09:02;1.88;;;1.70;;
83232;SDS011;73119;42.642;23.332;2024-03-08T05:11:39;4.50;;;1.80;;
83232;SDS011;73119;42.642;23.332;2024-03-08T05:14:05;1.02;;;0.90;;
83232;SDS011;73119;42.642;23.332;2024-03-08T05:16:31;1.95;;;1.40;;
83232;SDS011;73119;42.642;23.332;2024-03-08T05:22:15;1.85;;;1.38;;
83232;SDS011;73119;42.642;23.332;2024-03-08T05:24:41;2.65;;;1.83;;
83232;SDS011;73119;42.642;23.332;2024-03-08T05:27:07;3.95;;;1.80;;
83232;SDS011;73119;42.642;23.332;2024-03-08T05:29:33;2.50;;;1.67;;
83232;SDS011;73119;42.642;23.332;2024-03-08T05:31:59;2.75;;;1.88;;
83232;SDS011;73119;42.642;23.332;2024-03-08T05:34:26;3.03;;;2.00;;
83232;SDS011;73119;42.642;23.332;2024-03-08T05:36:53;3.25;;;1.73;;
83232;SDS011;73119;42.642;23.332;2024-03-08T05:39:19;2.42;;;1.83;;
83232;SDS011;73119;42.642;23.332;2024-03-08T05:41:46;2.53;;;1.75;;
83232;SDS011;73119;42.642;23.332;2024-03-08T05:44:12;2.60;;;1.77;;
83232;SDS011;73119;42.642;23.332;2024-03-08T05:46:39;2.75;;;2.17;;
83232;SDS011;73119;42.642;23.332;2024-03-08T05:49:05;2.35;;;2.00;;
83232;SDS011;73119;42.642;23.332;2024-03-08T05:51:32;2.10;;;1.70;;
83232;SDS011;73119;42.642;23.332;2024-03-08T05:54:02;3.67;;;1.95;;
83232;SDS011;73119;42.642;23.332;2024-03-08T05:56:28;2.88;;;1.85;;
83232;SDS011;73119;42.642;23.332;2024-03-08T05:58:55;3.97;;;2.13;;
83232;SDS011;73119;42.642;23.332;2024-03-08T06:01:21;4.60;;;2.58;;
83232;SDS011;73119;42.642;23.332;2024-03-08T06:03:47;3.47;;;2.53;;
83232;SDS011;73119;42.642;23.332;2024-03-08T06:06:14;3.00;;;1.73;;
83232;SDS011;73119;42.642;23.332;2024-03-08T06:08:40;5.25;;;1.85;;
83232;SDS011;73119;42.642;23.332;2024-03-08T06:11:08;5.13;;;2.50;;
83232;SDS011;73119;42.642;23.332;2024-03-08T06:13:34;2.35;;;1.95;;
83232;SDS011;73119;42.642;23.332;2024-03-08T06:16:01;3.20;;;2.30;;
83232;SDS011;73119;42.642;23.332;2024-03-08T06:18:36;4.60;;;2.47;;
83232;SDS011;73119;42.642;23.332;2024-03-08T06:21:02;7.32;;;3.25;;
83232;SDS011;73119;42.642;23.332;2024-03-08T06:23:30;2.83;;;2.20;;
83232;SDS011;73119;42.642;23.332;2024-03-08T06:25:56;4.50;;;3.25;;
83232;SDS011;73119;42.642;23.332;2024-03-08T06:28:22;3.55;;;2.28;;
83232;SDS011;73119;42.642;23.332;2024-03-08T06:30:48;3.80;;;1.92;;
83232;SDS011;73119;42.642;23.332;2024-03-08T06:33:16;5.30;;;3.05;;
83232;SDS011;73119;42.642;23.332;2024-03-08T06:35:42;6.45;;;2.80;;
83232;SDS011;73119;42.642;23.332;2024-03-08T06:38:08;4.53;;;3.20;;
83232;SDS011;73119;42.642;23.332;2024-03-08T06:40:34;5.20;;;3.40;;
83232;SDS011;73119;42.642;23.332;2024-03-08T06:43:00;4.63;;;3.38;;
83232;SDS011;73119;42.642;23.332;2024-03-08T06:45:26;4.97;;;3.42;;
83232;SDS011;73119;42.642;23.332;2024-03-08T06:47:53;4.75;;;2.33;;
83232;SDS011;73119;42.642;23.332;2024-03-08T06:50:19;3.95;;;3.03;;
83232;SDS011;73119;42.642;23.332;2024-03-08T06:52:45;5.68;;;2.60;;
83232;SDS011;73119;42.642;23.332;2024-03-08T06:55:15;4.40;;;3.15;;
83232;SDS011;73119;42.642;23.332;2024-03-08T06:57:42;5.50;;;4.05;;
83232;SDS011;73119;42.642;23.332;2024-03-08T07:00:08;4.70;;;3.13;;
83232;SDS011;73119;42.642;23.332;2024-03-08T07:02:40;5.40;;;3.78;;
83232;SDS011;73119;42.642;23.332;2024-03-08T07:05:06;5.53;;;3.92;;
83232;SDS011;73119;42.642;23.332;2024-03-08T07:07:35;3.80;;;2.60;;
83232;SDS011;73119;42.642;23.332;2024-03-08T07:10:02;4.70;;;3.25;;
83232;SDS011;73119;42.642;23.332;2024-03-08T07:12:28;5.35;;;3.42;;
83232;SDS011;73119;42.642;23.332;2024-03-08T07:14:54;4.78;;;3.00;;
83232;SDS011;73119;42.642;23.332;2024-03-08T07:17:20;5.70;;;3.75;;
83232;SDS011;73119;42.642;23.332;2024-03-08T07:19:47;7.55;;;4.22;;
83232;SDS011;73119;42.642;23.332;2024-03-08T07:22:14;5.03;;;2.95;;
83232;SDS011;73119;42.642;23.332;2024-03-08T07:24:40;5.65;;;3.28;;
83232;SDS011;73119;42.642;23.332;2024-03-08T07:27:41;8.60;;;3.45;;
83232;SDS011;73119;42.642;23.332;2024-03-08T07:30:07;6.40;;;3.28;;
83232;SDS011;73119;42.642;23.332;2024-03-08T07:32:35;4.25;;;2.85;;
83232;SDS011;73119;42.642;23.332;2024-03-08T07:35:01;8.25;;;3.65;;
83232;SDS011;73119;42.642;23.332;2024-03-08T07:37:28;5.55;;;3.03;;
83232;SDS011;73119;42.642;23.332;2024-03-08T07:39:55;3.45;;;2.92;;
83232;SDS011;73119;42.642;23.332;2024-03-08T07:42:23;6.00;;;3.00;;
83232;SDS011;73119;42.642;23.332;2024-03-08T07:44:49;2.70;;;1.65;;
83232;SDS011;73119;42.642;23.332;2024-03-08T07:47:15;4.95;;;3.08;;
83232;SDS011;73119;42.642;23.332;2024-03-08T07:49:43;3.80;;;2.50;;
83232;SDS011;73119;42.642;23.332;2024-03-08T07:52:09;4.07;;;2.30;;
83232;SDS011;73119;42.642;23.332;2024-03-08T07:54:40;2.15;;;1.30;;
83232;SDS011;73119;42.642;23.332;2024-03-08T07:57:06;3.95;;;3.45;;
83232;SDS011;73119;42.642;23.332;2024-03-08T07:59:32;5.45;;;3.10;;
83232;SDS011;73119;42.642;23.332;2024-03-08T08:01:58;5.88;;;2.92;;
83232;SDS011;73119;42.642;23.332;2024-03-08T08:04:24;5.75;;;3.58;;
83232;SDS011;73119;42.642;23.332;2024-03-08T08:06:51;5.15;;;3.10;;
83232;SDS011;73119;42.642;23.332;2024-03-08T08:11:54;4.88;;;2.92;;
83232;SDS011;73119;42.642;23.332;2024-03-08T08:14:20;3.75;;;2.88;;
83232;SDS011;73119;42.642;23.332;2024-03-08T08:16:48;5.38;;;3.08;;
83232;SDS011;73119;42.642;23.332;2024-03-08T08:19:17;7.30;;;3.20;;
83232;SDS011;73119;42.642;23.332;2024-03-08T08:21:43;3.75;;;2.65;;
83232;SDS011;73119;42.642;23.332;2024-03-08T08:24:09;5.28;;;3.35;;
83232;SDS011;73119;42.642;23.332;2024-03-08T08:26:36;4.65;;;3.35;;
83232;SDS011;73119;42.642;23.332;2024-03-08T08:29:02;3.42;;;2.55;;
83232;SDS011;73119;42.642;23.332;2024-03-08T08:31:28;8.25;;;3.42;;
83232;SDS011;73119;42.642;23.332;2024-03-08T08:33:54;5.82;;;3.63;;
83232;SDS011;73119;42.642;23.332;2024-03-08T08:36:23;7.13;;;3.15;;
83232;SDS011;73119;42.642;23.332;2024-03-08T08:38:49;7.05;;;3.40;;
83232;SDS011;73119;42.642;23.332;2024-03-08T08:41:15;6.95;;;3.75;;
83232;SDS011;73119;42.642;23.332;2024-03-08T08:43:42;8.63;;;3.92;;
83232;SDS011;73119;42.642;23.332;2024-03-08T08:46:11;5.55;;;2.85;;
83232;SDS011;73119;42.642;23.332;2024-03-08T08:48:38;5.72;;;3.88;;
83232;SDS011;73119;42.642;23.332;2024-03-08T08:51:06;4.93;;;3.35;;
83232;SDS011;73119;42.642;23.332;2024-03-08T08:53:37;4.78;;;3.42;;
83232;SDS011;73119;42.642;23.332;2024-03-08T08:56:03;4.10;;;2.60;;
83232;SDS011;73119;42.642;23.332;2024-03-08T08:58:29;6.75;;;3.65;;
83232;SDS011;73119;42.642;23.332;2024-03-08T09:00:55;4.60;;;2.47;;
83232;SDS011;73119;42.642;23.332;2024-03-08T09:03:21;5.93;;;3.60;;
83232;SDS011;73119;42.642;23.332;2024-03-08T09:05:48;3.53;;;2.53;;
83232;SDS011;73119;42.642;23.332;2024-03-08T09:08:14;4.40;;;2.90;;
83232;SDS011;73119;42.642;23.332;2024-03-08T09:10:40;9.57;;;3.33;;
83232;SDS011;73119;42.642;23.332;2024-03-08T09:13:06;3.38;;;2.50;;
83232;SDS011;73119;42.642;23.332;2024-03-08T09:15:35;4.55;;;3.58;;
83232;SDS011;73119;42.642;23.332;2024-03-08T09:18:01;3.63;;;2.53;;
83232;SDS011;73119;42.642;23.332;2024-03-08T09:20:27;4.30;;;2.53;;
83232;SDS011;73119;42.642;23.332;2024-03-08T09:22:54;5.78;;;2.65;;
83232;SDS011;73119;42.642;23.332;2024-03-08T09:25:20;5.07;;;3.22;;
83232;SDS011;73119;42.642;23.332;2024-03-08T09:27:47;3.75;;;2.55;;
83232;SDS011;73119;42.642;23.332;2024-03-08T09:30:13;3.25;;;2.58;;
83232;SDS011;73119;42.642;23.332;2024-03-08T09:32:40;4.25;;;3.17;;
83232;SDS011;73119;42.642;23.332;2024-03-08T09:35:06;4.60;;;2.83;;
83232;SDS011;73119;42.642;23.332;2024-03-08T09:37:35;4.13;;;2.72;;
83232;SDS011;73119;42.642;23.332;2024-03-08T09:40:02;3.78;;;2.80;;
83232;SDS011;73119;42.642;23.332;2024-03-08T09:42:34;8.07;;;3.65;;
83232;SDS011;73119;42.642;23.332;2024-03-08T09:45:03;5.22;;;3.10;;
83232;SDS011;73119;42.642;23.332;2024-03-08T09:47:29;5.03;;;2.63;;
83232;SDS011;73119;42.642;23.332;2024-03-08T09:49:58;6.05;;;2.47;;
83232;SDS011;73119;42.642;23.332;2024-03-08T09:52:24;3.97;;;2.30;;
83232;SDS011;73119;42.642;23.332;2024-03-08T09:54:51;3.53;;;2.53;;
83232;SDS011;73119;42.642;23.332;2024-03-08T09:57:18;2.53;;;1.67;;
83232;SDS011;73119;42.642;23.332;2024-03-08T09:59:44;2.97;;;1.90;;
83232;SDS011;73119;42.642;23.332;2024-03-08T10:02:15;3.10;;;1.65;;
83232;SDS011;73119;42.642;23.332;2024-03-08T10:04:42;4.32;;;2.42;;
83232;SDS011;73119;42.642;23.332;2024-03-08T10:07:08;3.28;;;2.17;;
83232;SDS011;73119;42.642;23.332;2024-03-08T10:09:34;3.05;;;2.20;;
83232;SDS011;73119;42.642;23.332;2024-03-08T10:12:00;5.53;;;2.80;;
83232;SDS011;73119;42.642;23.332;2024-03-08T10:14:27;3.30;;;1.90;;
83232;SDS011;73119;42.642;23.332;2024-03-08T10:16:54;3.28;;;2.40;;
83232;SDS011;73119;42.642;23.332;2024-03-08T10:19:24;3.80;;;2.08;;
83232;SDS011;73119;42.642;23.332;2024-03-08T10:21:50;6.03;;;2.60;;
83232;SDS011;73119;42.642;23.332;2024-03-08T10:24:18;4.13;;;2.60;;
83232;SDS011;73119;42.642;23.332;2024-03-08T10:26:46;4.53;;;2.33;;
83232;SDS011;73119;42.642;23.332;2024-03-08T10:29:13;2.60;;;2.00;;
83232;SDS011;73119;42.642;23.332;2024-03-08T10:31:43;2.50;;;1.90;;
83232;SDS011;73119;42.642;23.332;2024-03-08T10:34:11;2.40;;;1.58;;
83232;SDS011;73119;42.642;23.332;2024-03-08T10:36:38;4.25;;;2.47;;
83232;SDS011;73119;42.642;23.332;2024-03-08T10:39:19;3.00;;;2.13;;
83232;SDS011;73119;42.642;23.332;2024-03-08T10:41:48;2.03;;;1.45;;
83232;SDS011;73119;42.642;23.332;2024-03-08T10:44:23;4.18;;;2.20;;
83232;SDS011;73119;42.642;23.332;2024-03-08T10:49:55;3.92;;;2.05;;
83232;SDS011;73119;42.642;23.332;2024-03-08T10:52:29;3.42;;;1.67;;
83232;SDS011;73119;42.642;23.332;2024-03-08T10:54:56;2.53;;;1.85;;
83232;SDS011;73119;42.642;23.332;2024-03-08T10:57:24;2.55;;;1.98;;
83232;SDS011;73119;42.642;23.332;2024-03-08T10:59:50;3.45;;;2.17;;
83232;SDS011;73119;42.642;23.332;2024-03-08T11:02:17;2.40;;;2.15;;
83232;SDS011;73119;42.642;23.332;2024-03-08T11:04:47;3.13;;;1.85;;
83232;SDS011;73119;42.642;23.332;2024-03-08T11:07:14;3.13;;;1.92;;
83232;SDS011;73119;42.642;23.332;2024-03-08T11:09:43;3.33;;;2.03;;
83232;SDS011;73119;42.642;23.332;2024-03-08T11:14:49;5.93;;;2.42;;
83232;SDS011;73119;42.642;23.332;2024-03-08T11:17:16;4.70;;;2.42;;
83232;SDS011;73119;42.642;23.332;2024-03-08T11:19:46;2.78;;;2.05;;
83232;SDS011;73119;42.642;23.332;2024-03-08T11:22:20;2.65;;;1.70;;
83232;SDS011;73119;42.642;23.332;2024-03-08T11:24:50;2.47;;;1.67;;
83232;SDS011;73119;42.642;23.332;2024-03-08T11:27:16;2.85;;;2.03;;
83232;SDS011;73119;42.642;23.332;2024-03-08T11:29:42;2.28;;;1.63;;
83232;SDS011;73119;42.642;23.332;2024-03-08T11:34:35;2.65;;;1.77;;
83232;SDS011;73119;42.642;23.332;2024-03-08T11:37:04;3.05;;;1.98;;
83232;SDS011;73119;42.642;23.332;2024-03-08T11:39:31;3.00;;;1.98;;
83232;SDS011;73119;42.642;23.332;2024-03-08T11:41:57;2.92;;;1.90;;
83232;SDS011;73119;42.642;23.332;2024-03-08T11:44:26;2.15;;;1.58;;
83232;SDS011;73119;42.642;23.332;2024-03-08T11:46:52;2.97;;;1.75;;
83232;SDS011;73119;42.642;23.332;2024-03-08T11:49:18;2.65;;;1.95;;
83232;SDS011;73119;42.642;23.332;2024-03-08T11:51:45;2.50;;;1.88;;
83232;SDS011;73119;42.642;23.332;2024-03-08T11:54:11;2.50;;;1.70;;
83232;SDS011;73119;42.642;23.332;2024-03-08T11:56:40;2.20;;;1.67;;
83232;SDS011;73119;42.642;23.332;2024-03-08T11:59:10;3.38;;;2.30;;
83232;SDS011;73119;42.642;23.332;2024-03-08T12:01:37;2.70;;;2.03;;
83232;SDS011;73119;42.642;23.332;2024-03-08T12:04:04;3.08;;;2.00;;
83232;SDS011;73119;42.642;23.332;2024-03-08T12:06:37;3.08;;;1.80;;
83232;SDS011;73119;42.642;23.332;2024-03-08T12:09:10;2.42;;;1.50;;
83232;SDS011;73119;42.642;23.332;2024-03-08T12:11:37;2.05;;;1.63;;
83232;SDS011;73119;42.642;23.332;2024-03-08T12:14:04;2.75;;;1.77;;
83232;SDS011;73119;42.642;23.332;2024-03-08T12:16:31;3.03;;;2.03;;
83232;SDS011;73119;42.642;23.332;2024-03-08T12:18:57;1.98;;;1.38;;
83232;SDS011;73119;42.642;23.332;2024-03-08T12:21:25;2.95;;;1.75;;
83232;SDS011;73119;42.642;23.332;2024-03-08T12:24:07;3.97;;;2.03;;
83232;SDS011;73119;42.642;23.332;2024-03-08T12:26:34;1.48;;;1.13;;
83232;SDS011;73119;42.642;23.332;2024-03-08T12:31:47;2.80;;;1.70;;
83232;SDS011;73119;42.642;23.332;2024-03-08T12:34:14;4.85;;;1.70;;
83232;SDS011;73119;42.642;23.332;2024-03-08T12:36:47;2.67;;;1.70;;
83232;SDS011;73119;42.642;23.332;2024-03-08T12:39:16;2.28;;;1.70;;
83232;SDS011;73119;42.642;23.332;2024-03-08T12:41:46;3.03;;;1.90;;
83232;SDS011;73119;42.642;23.332;2024-03-08T12:44:12;2.08;;;1.67;;
83232;SDS011;73119;42.642;23.332;2024-03-08T12:46:38;2.28;;;1.60;;
83232;SDS011;73119;42.642;23.332;2024-03-08T12:49:08;2.40;;;1.92;;
83232;SDS011;73119;42.642;23.332;2024-03-08T12:51:37;2.58;;;1.42;;
83232;SDS011;73119;42.642;23.332;2024-03-08T12:54:06;2.15;;;1.50;;
83232;SDS011;73119;42.642;23.332;2024-03-08T12:56:33;2.75;;;1.55;;
83232;SDS011;73119;42.642;23.332;2024-03-08T12:58:59;2.88;;;1.63;;
83232;SDS011;73119;42.642;23.332;2024-03-08T13:01:25;3.75;;;1.92;;
83232;SDS011;73119;42.642;23.332;2024-03-08T13:03:52;1.88;;;1.35;;
83232;SDS011;73119;42.642;23.332;2024-03-08T13:06:21;2.67;;;1.90;;
83232;SDS011;73119;42.642;23.332;2024-03-08T13:08:49;2.38;;;1.98;;
83232;SDS011;73119;42.642;23.332;2024-03-08T13:11:17;2.13;;;1.70;;
83232;SDS011;73119;42.642;23.332;2024-03-08T13:13:44;7.43;;;1.83;;
83232;SDS011;73119;42.642;23.332;2024-03-08T13:16:10;2.13;;;1.52;;
83232;SDS011;73119;42.642;23.332;2024-03-08T13:18:40;2.08;;;1.70;;
83232;SDS011;73119;42.642;23.332;2024-03-08T13:21:07;2.67;;;1.75;;
83232;SDS011;73119;42.642;23.332;2024-03-08T13:23:34;2.75;;;1.98;;
83232;SDS011;73119;42.642;23.332;2024-03-08T13:26:10;3.55;;;2.00;;
83232;SDS011;73119;42.642;23.332;2024-03-08T13:28:43;2.75;;;1.67;;
83232;SDS011;73119;42.642;23.332;2024-03-08T13:31:09;1.77;;;1.27;;
83232;SDS011;73119;42.642;23.332;2024-03-08T13:33:36;3.10;;;1.40;;
83232;SDS011;73119;42.642;23.332;2024-03-08T13:36:04;2.97;;;1.85;;
83232;SDS011;73119;42.642;23.332;2024-03-08T13:38:31;2.63;;;1.98;;
83232;SDS011;73119;42.642;23.332;2024-03-08T13:41:01;6.13;;;1.88;;
83232;SDS011;73119;42.642;23.332;2024-03-08T13:43:27;2.58;;;1.65;;
83232;SDS011;73119;42.642;23.332;2024-03-08T13:45:54;2.40;;;1.90;;
83232;SDS011;73119;42.642;23.332;2024-03-08T13:48:20;2.35;;;1.80;;
83232;SDS011;73119;42.642;23.332;2024-03-08T13:50:47;2.85;;;1.90;;
83232;SDS011;73119;42.642;23.332;2024-03-08T13:53:14;1.85;;;1.33;;
83232;SDS011;73119;42.642;23.332;2024-03-08T13:55:41;3.67;;;1.60;;
83232;SDS011;73119;42.642;23.332;2024-03-08T13:58:07;2.22;;;1.70;;
83232;SDS011;73119;42.642;23.332;2024-03-08T14:00:39;2.92;;;2.33;;
83232;SDS011;73119;42.642;23.332;2024-03-08T14:03:06;2.42;;;1.70;;
83232;SDS011;73119;42.642;23.332;2024-03-08T14:05:32;3.67;;;2.20;;
83232;SDS011;73119;42.642;23.332;2024-03-08T14:08:04;2.90;;;2.20;;
83232;SDS011;73119;42.642;23.332;2024-03-08T14:10:32;6.68;;;1.95;;
83232;SDS011;73119;42.642;23.332;2024-03-08T14:12:59;4.55;;;2.22;;
83232;SDS011;73119;42.642;23.332;2024-03-08T14:15:25;2.03;;;1.60;;
83232;SDS011;73119;42.642;23.332;2024-03-08T14:17:52;2.58;;;1.75;;
83232;SDS011;73119;42.642;23.332;2024-03-08T14:20:18;2.40;;;1.90;;
83232;SDS011;73119;42.642;23.332;2024-03-08T14:22:44;1.88;;;1.48;;
83232;SDS011;73119;42.642;23.332;2024-03-08T14:25:11;1.20;;;1.00;;
83232;SDS011;73119;42.642;23.332;2024-03-08T14:27:42;1.80;;;1.45;;
83232;SDS011;73119;42.642;23.332;2024-03-08T14:30:09;3.70;;;1.88;;
83232;SDS011;73119;42.642;23.332;2024-03-08T14:32:35;1.98;;;1.45;;
83232;SDS011;73119;42.642;23.332;2024-03-08T14:37:29;3.67;;;1.58;;
83232;SDS011;73119;42.642;23.332;2024-03-08T14:39:55;3.97;;;1.77;;
83232;SDS011;73119;42.642;23.332;2024-03-08T14:42:21;2.53;;;1.70;;
83232;SDS011;73119;42.642;23.332;2024-03-08T14:44:50;3.72;;;2.40;;
83232;SDS011;73119;42.642;23.332;2024-03-08T14:47:19;2.63;;;1.90;;
83232;SDS011;73119;42.642;23.332;2024-03-08T14:49:45;5.75;;;2.47;;
83232;SDS011;73119;42.642;23.332;2024-03-08T14:52:14;4.43;;;2.38;;
83232;SDS011;73119;42.642;23.332;2024-03-08T14:54:55;4.22;;;2.15;;
83232;SDS011;73119;42.642;23.332;2024-03-08T14:57:21;4.82;;;1.83;;
83232;SDS011;73119;42.642;23.332;2024-03-08T14:59:47;5.18;;;1.83;;
83232;SDS011;73119;42.642;23.332;2024-03-08T15:02:13;8.40;;;1.92;;
83232;SDS011;73119;42.642;23.332;2024-03-08T15:04:39;3.45;;;1.50;;
83232;SDS011;73119;42.642;23.332;2024-03-08T15:07:06;2.38;;;1.67;;
83232;SDS011;73119;42.642;23.332;2024-03-08T15:09:35;2.40;;;1.60;;
83232;SDS011;73119;42.642;23.332;2024-03-08T15:12:05;3.63;;;1.98;;
83232;SDS011;73119;42.642;23.332;2024-03-08T15:14:32;3.85;;;2.25;;
83232;SDS011;73119;42.642;23.332;2024-03-08T15:16:58;2.08;;;1.45;;